createdAt,value
2018-09-25T00:02:02.999Z,48.78
2018-09-25T00:04:37.517Z,49.31
2018-09-25T00:07:12.045Z,49.72
2018-09-25T00:09:46.646Z,49.51
2018-09-25T00:12:21.399Z,49.39
2018-09-25T00:14:55.927Z,49.31
2018-09-25T00:17:30.645Z,49.49
2018-09-25T00:20:05.064Z,49.53
2018-09-25T00:22:39.711Z,49.49
2018-09-25T00:25:14.230Z,48.76
2018-09-25T00:27:48.688Z,48.99
2018-09-25T00:30:23.204Z,49.22
2018-09-25T00:32:57.635Z,49.05
2018-09-25T00:35:32.111Z,49.46
2018-09-25T00:38:06.794Z,49.30
2018-09-25T00:40:41.311Z,48.93
2018-09-25T00:43:15.705Z,49.22
2018-09-25T00:45:50.188Z,49.26
2018-09-25T00:48:24.544Z,49.11
2018-09-25T00:50:59.327Z,49.23
2018-09-25T00:53:33.743Z,49.17
2018-09-25T00:56:08.679Z,49.42
2018-09-25T00:58:43.144Z,49.50
2018-09-25T01:01:17.718Z,49.32
2018-09-25T01:03:52.090Z,49.06
2018-09-25T01:06:26.711Z,49.16
2018-09-25T01:09:01.316Z,48.80
2018-09-25T01:11:35.761Z,48.92
2018-09-25T01:14:10.463Z,48.69
2018-09-25T01:16:44.902Z,48.77
2018-09-25T01:19:19.462Z,48.60
2018-09-25T01:21:54.302Z,48.46
2018-09-25T01:24:28.800Z,47.34
2018-09-25T01:27:03.492Z,47.29
2018-09-25T01:29:38.158Z,47.61
2018-09-25T01:32:12.801Z,48.02
2018-09-25T01:34:47.314Z,47.92
2018-09-25T01:37:21.727Z,47.48
2018-09-25T01:39:56.127Z,47.48
2018-09-25T01:42:30.785Z,47.88
2018-09-25T01:45:05.095Z,47.41
2018-09-25T01:52:42.699Z,47.22
2018-09-25T01:55:17.374Z,47.33
2018-09-25T01:57:51.920Z,47.15
2018-09-25T02:00:26.500Z,46.12
2018-09-25T02:03:01.135Z,45.59
2018-09-25T02:05:35.676Z,46.07
2018-09-25T02:08:10.332Z,45.93
2018-09-25T02:10:44.965Z,46.14
2018-09-25T02:13:19.516Z,46.33
2018-09-25T02:15:54.142Z,46.65
2018-09-25T02:18:28.529Z,45.50
2018-09-25T02:21:02.915Z,45.69
2018-09-25T02:23:37.608Z,46.33
2018-09-25T02:26:12.129Z,46.75
2018-09-25T02:28:46.886Z,47.17
2018-09-25T02:31:21.566Z,47.60
2018-09-25T02:33:55.984Z,47.84
2018-09-25T02:36:30.350Z,47.72
2018-09-25T02:39:05.064Z,47.48
2018-09-25T02:41:39.773Z,48.07
2018-09-25T02:44:14.394Z,48.10
2018-09-25T02:46:49.007Z,48.57
2018-09-25T02:49:23.744Z,48.24
2018-09-25T02:51:58.231Z,47.29
2018-09-25T02:54:32.868Z,47.37
2018-09-25T02:57:07.565Z,47.86
2018-09-25T02:59:42.207Z,48.03
2018-09-25T03:02:16.767Z,47.98
2018-09-25T03:04:51.250Z,47.38
2018-09-25T03:07:25.807Z,46.96
2018-09-25T03:10:00.351Z,46.75
2018-09-25T03:12:35.104Z,47.10
2018-09-25T03:15:09.836Z,47.44
2018-09-25T03:17:44.815Z,47.24
2018-09-25T03:20:19.343Z,47.84
2018-09-25T03:22:54.070Z,47.08
2018-09-25T03:25:28.652Z,47.02
2018-09-25T03:28:03.267Z,47.15
2018-09-25T03:30:37.918Z,46.46
2018-09-25T03:33:13.383Z,45.91
2018-09-25T03:35:48.122Z,46.01
2018-09-25T03:38:22.503Z,46.06
2018-09-25T03:40:57.356Z,45.78
2018-09-25T03:43:33.208Z,46.33
2018-09-25T03:46:07.814Z,46.44
2018-09-25T03:48:42.340Z,46.45
2018-09-25T03:51:17.184Z,46.94
2018-09-25T03:53:51.680Z,46.44
2018-09-25T03:56:26.469Z,46.77
2018-09-25T03:59:01.153Z,46.45
2018-09-25T04:01:35.553Z,46.41
2018-09-25T04:04:10.629Z,46.11
2018-09-25T04:06:45.645Z,46.15
2018-09-25T04:09:19.966Z,45.98
2018-09-25T04:11:54.693Z,46.18
2018-09-25T04:14:29.059Z,46.00
2018-09-25T04:17:04.040Z,46.10
2018-09-25T04:19:38.815Z,46.43
2018-09-25T04:22:13.596Z,46.80
2018-09-25T04:24:48.323Z,46.95
2018-09-25T04:27:23.125Z,46.57
2018-09-25T04:29:57.886Z,46.78
2018-09-25T04:32:32.512Z,47.21
2018-09-25T04:35:07.146Z,47.17
2018-09-25T04:37:41.920Z,48.83
2018-09-25T04:40:16.349Z,49.52
2018-09-25T04:42:50.868Z,50.10
2018-09-25T04:45:25.521Z,50.27
2018-09-25T04:48:00.160Z,49.89
2018-09-25T04:50:34.786Z,47.45
2018-09-25T04:53:09.336Z,45.71
2018-09-25T04:55:43.811Z,44.18
2018-09-25T04:58:18.551Z,42.26
2018-09-25T05:00:53.166Z,40.87
2018-09-25T05:03:27.650Z,39.54
2018-09-25T05:06:02.188Z,38.50
2018-09-25T05:08:36.719Z,37.49
2018-09-25T05:11:11.081Z,37.36
2018-09-25T05:13:45.569Z,36.76
2018-09-25T05:16:20.297Z,36.89
2018-09-25T05:18:55.434Z,35.76
2018-09-25T05:21:30.961Z,35.88
2018-09-25T05:24:05.384Z,35.12
2018-09-25T05:26:40.111Z,35.24
2018-09-25T05:29:14.783Z,34.34
2018-09-25T05:31:49.196Z,33.39
2018-09-25T05:34:23.913Z,33.06
2018-09-25T05:36:58.249Z,32.62
2018-09-25T05:39:32.967Z,34.41
2018-09-25T05:42:07.663Z,33.64
2018-09-25T05:44:41.987Z,32.65
2018-09-25T05:47:16.680Z,30.71
2018-09-25T05:49:51.352Z,30.16
2018-09-25T05:52:25.927Z,28.68
2018-09-25T05:55:00.889Z,27.85
2018-09-25T05:57:36.017Z,26.34
2018-09-25T06:00:10.699Z,25.70
2018-09-25T06:02:47.185Z,26.34
2018-09-25T06:05:21.858Z,24.32
2018-09-25T06:07:56.839Z,24.67
2018-09-25T06:10:31.718Z,24.50
2018-09-25T06:13:06.397Z,25.17
2018-09-25T06:15:41.378Z,24.66
2018-09-25T06:18:16.067Z,24.36
2018-09-25T06:20:50.653Z,23.81
2018-09-25T06:23:25.238Z,23.11
2018-09-25T06:25:59.896Z,23.21
2018-09-25T06:28:34.491Z,22.92
2018-09-25T06:31:09.049Z,23.16
2018-09-25T06:33:43.550Z,22.21
2018-09-25T06:36:18.243Z,22.27
2018-09-25T06:38:53.283Z,22.21
2018-09-25T06:41:27.823Z,21.75
2018-09-25T06:44:02.537Z,21.12
2018-09-25T06:46:36.925Z,20.69
2018-09-25T06:49:11.548Z,20.89
2018-09-25T06:51:46.250Z,21.13
2018-09-25T06:54:21.057Z,22.16
2018-09-25T06:56:55.986Z,20.27
2018-09-25T06:59:30.529Z,19.70
2018-09-25T07:02:05.171Z,20.24
2018-09-25T07:04:40.146Z,22.02
2018-09-25T07:07:14.560Z,22.71
2018-09-25T07:09:49.136Z,22.92
2018-09-25T07:12:23.774Z,22.83
2018-09-25T07:14:58.554Z,21.72
2018-09-25T07:17:33.229Z,21.71
2018-09-25T07:20:07.822Z,21.66
2018-09-25T07:22:42.577Z,21.86
2018-09-25T07:25:16.994Z,21.65
2018-09-25T07:27:51.669Z,22.46
2018-09-25T07:30:26.347Z,21.21
2018-09-25T07:33:00.779Z,19.96
2018-09-25T07:35:35.465Z,18.98
2018-09-25T07:38:10.049Z,19.37
2018-09-25T07:40:44.778Z,19.42
2018-09-25T07:43:19.904Z,19.28
2018-09-25T07:45:54.570Z,19.91
2018-09-25T07:48:29.271Z,20.02
2018-09-25T07:51:04.061Z,20.53
2018-09-25T07:53:39.849Z,22.26
2018-09-25T07:56:14.376Z,20.90
2018-09-25T07:58:48.882Z,20.89
2018-09-25T08:01:23.519Z,22.03
2018-09-25T08:03:58.144Z,22.66
2018-09-25T08:06:32.815Z,22.71
2018-09-25T08:09:07.452Z,21.33
2018-09-25T08:11:42.137Z,22.31
2018-09-25T08:14:16.848Z,22.06
2018-09-25T08:16:51.528Z,21.03
2018-09-25T08:19:26.445Z,20.99
2018-09-25T08:22:00.984Z,21.08
2018-09-25T08:24:35.469Z,20.44
2018-09-25T08:27:10.101Z,21.17
2018-09-25T08:29:44.897Z,21.05
2018-09-25T08:32:19.312Z,21.01
2018-09-25T08:34:53.938Z,20.64
2018-09-25T08:37:28.528Z,20.17
2018-09-25T08:40:03.067Z,20.91
2018-09-25T08:42:37.742Z,20.72
2018-09-25T08:45:12.377Z,19.94
2018-09-25T08:47:46.815Z,20.62
2018-09-25T08:50:21.325Z,20.60
2018-09-25T08:52:55.958Z,20.17
2018-09-25T08:55:30.494Z,20.81
2018-09-25T08:58:04.956Z,20.33
2018-09-25T09:00:39.587Z,20.81
2018-09-25T09:03:14.264Z,20.74
2018-09-25T09:05:48.703Z,20.44
2018-09-25T09:08:23.302Z,19.99
2018-09-25T09:10:57.945Z,20.07
2018-09-25T09:13:32.742Z,20.79
2018-09-25T09:16:07.331Z,20.77
2018-09-25T09:18:42.041Z,21.18
2018-09-25T09:21:16.808Z,21.68
2018-09-25T09:23:51.533Z,21.27
2018-09-25T09:26:26.221Z,21.47
2018-09-25T09:29:00.913Z,21.13
2018-09-25T09:31:35.487Z,21.36
2018-09-25T09:34:10.068Z,20.17
2018-09-25T09:36:44.674Z,20.39
2018-09-25T09:39:19.353Z,20.36
2018-09-25T09:41:54.439Z,22.50
2018-09-25T09:44:28.951Z,22.11
2018-09-25T09:47:04.425Z,21.86
2018-09-25T09:49:38.931Z,21.81
2018-09-25T09:52:13.507Z,22.57
2018-09-25T09:54:48.040Z,20.70
2018-09-25T09:57:22.737Z,20.72
2018-09-25T09:59:57.513Z,20.38
2018-09-25T10:02:31.991Z,20.48
2018-09-25T10:05:06.453Z,19.61
2018-09-25T10:07:41.548Z,19.95
2018-09-25T10:10:16.198Z,19.80
2018-09-25T10:12:50.656Z,19.87
2018-09-25T10:15:25.103Z,20.21
2018-09-25T10:17:59.548Z,19.88
2018-09-25T10:20:34.083Z,20.64
2018-09-25T10:23:08.515Z,20.64
2018-09-25T10:25:43.117Z,20.39
2018-09-25T10:28:17.817Z,20.30
2018-09-25T10:30:52.332Z,19.75
2018-09-25T10:33:26.961Z,20.20
2018-09-25T10:36:01.758Z,19.50
2018-09-25T10:38:36.630Z,18.80
2018-09-25T10:41:11.244Z,18.86
2018-09-25T10:43:46.090Z,18.98
2018-09-25T10:46:20.597Z,17.54
2018-09-25T10:48:55.233Z,17.40
2018-09-25T10:51:29.760Z,17.36
2018-09-25T10:54:04.483Z,17.23
2018-09-25T10:56:38.882Z,15.83
2018-09-25T10:59:13.569Z,17.08
2018-09-25T11:01:48.069Z,17.08
2018-09-25T11:04:22.535Z,17.00
2018-09-25T11:06:57.386Z,18.06
2018-09-25T11:09:31.955Z,17.64
2018-09-25T11:12:06.633Z,17.40
2018-09-25T11:14:41.324Z,18.06
2018-09-25T11:17:15.990Z,17.64
2018-09-25T11:19:50.520Z,17.92
2018-09-25T11:22:25.082Z,16.87
2018-09-25T11:24:59.479Z,16.60
2018-09-25T11:27:34.144Z,16.62
2018-09-25T11:30:08.815Z,16.10
2018-09-25T11:32:43.320Z,15.39
2018-09-25T11:35:18.038Z,17.09
2018-09-25T11:37:52.433Z,17.85
2018-09-25T11:40:27.092Z,18.77
2018-09-25T11:43:01.771Z,18.44
2018-09-25T11:45:36.296Z,18.84
2018-09-25T11:48:10.753Z,19.09
2018-09-25T11:50:45.124Z,18.28
2018-09-25T11:53:19.560Z,17.75
2018-09-25T11:55:54.425Z,17.86
2018-09-25T11:58:28.886Z,17.67
2018-09-25T12:01:03.474Z,18.30
2018-09-25T12:03:37.852Z,19.02
2018-09-25T12:06:12.363Z,20.31
2018-09-25T12:08:46.838Z,21.97
2018-09-25T12:11:21.273Z,21.84
2018-09-25T12:13:56.084Z,20.90
2018-09-25T12:16:30.907Z,21.63
2018-09-25T12:19:05.455Z,22.33
2018-09-25T12:21:40.157Z,21.88
2018-09-25T12:24:14.943Z,20.98
2018-09-25T12:26:49.716Z,20.96
2018-09-25T12:29:24.099Z,21.54
2018-09-25T12:31:58.524Z,21.51
2018-09-25T12:34:32.971Z,20.64
2018-09-25T12:37:07.629Z,21.11
2018-09-25T12:39:42.088Z,21.61
2018-09-25T12:42:16.468Z,21.10
2018-09-25T12:44:51.031Z,21.19
2018-09-25T12:47:25.614Z,21.45
2018-09-25T12:50:00.143Z,21.34
2018-09-25T12:52:34.725Z,21.36
2018-09-25T12:55:09.064Z,21.43
2018-09-25T12:57:43.736Z,22.45
2018-09-25T13:00:18.449Z,21.68
2018-09-25T13:02:53.008Z,22.47
2018-09-25T13:05:27.562Z,22.46
2018-09-25T13:08:02.282Z,22.17
2018-09-25T13:10:37.022Z,21.74
2018-09-25T13:13:11.658Z,22.16
2018-09-25T13:15:46.325Z,22.67
2018-09-25T13:18:21.129Z,22.63
2018-09-25T13:20:55.584Z,22.25
2018-09-25T13:23:30.215Z,22.57
2018-09-25T13:26:04.794Z,22.08
2018-09-25T13:28:39.265Z,22.19
2018-09-25T13:31:14.088Z,22.18
2018-09-25T13:33:49.134Z,22.35
2018-09-25T13:36:23.602Z,21.96
2018-09-25T13:38:58.395Z,22.38
2018-09-25T13:41:33.205Z,22.43
2018-09-25T13:44:07.630Z,22.05
2018-09-25T13:46:42.551Z,21.64
2018-09-25T13:49:17.337Z,22.50
2018-09-25T13:51:51.880Z,22.08
2018-09-25T13:54:26.419Z,21.89
2018-09-25T13:57:01.048Z,22.91
2018-09-25T13:59:35.411Z,23.69
2018-09-25T14:02:09.972Z,23.26
2018-09-25T14:04:44.822Z,23.92
2018-09-25T14:07:19.652Z,24.28
2018-09-25T14:09:55.126Z,24.56
2018-09-25T14:12:29.693Z,23.55
2018-09-25T14:15:04.235Z,23.88
2018-09-25T14:17:38.618Z,23.89
2018-09-25T14:20:13.426Z,24.31
2018-09-25T14:22:48.066Z,23.94
2018-09-25T14:25:22.751Z,24.60
2018-09-25T14:27:57.451Z,24.32
2018-09-25T14:30:32.218Z,25.41
2018-09-25T14:33:06.625Z,24.96
2018-09-25T14:35:41.063Z,24.49
2018-09-25T14:38:15.691Z,24.54
2018-09-25T14:40:50.306Z,24.98
2018-09-25T14:43:25.090Z,24.80
2018-09-25T14:45:59.595Z,25.27
2018-09-25T14:48:34.154Z,25.38
2018-09-25T14:51:08.785Z,26.30
2018-09-25T14:53:43.499Z,26.55
2018-09-25T14:56:17.970Z,26.30
2018-09-25T14:58:52.747Z,27.05
2018-09-25T15:01:27.283Z,26.98
2018-09-25T15:04:02.808Z,27.42
2018-09-25T15:06:37.474Z,27.30
2018-09-25T15:09:14.379Z,27.66
2018-09-25T15:11:49.127Z,27.72
2018-09-25T15:14:23.519Z,28.15
2018-09-25T15:16:58.290Z,27.81
2018-09-25T15:19:32.825Z,28.08
2018-09-25T15:22:07.794Z,28.07
2018-09-25T15:24:42.159Z,28.40
2018-09-25T15:27:16.793Z,28.43
2018-09-25T15:29:52.486Z,29.36
2018-09-25T15:32:27.166Z,28.94
2018-09-25T15:35:02.002Z,29.00
2018-09-25T15:37:36.983Z,29.82
2018-09-25T15:40:11.950Z,29.89
2018-09-25T15:42:46.802Z,30.29
2018-09-25T15:45:21.544Z,30.10
2018-09-25T15:47:56.298Z,30.24
2018-09-25T15:50:30.995Z,30.58
2018-09-25T15:53:05.462Z,30.67
2018-09-25T15:55:40.080Z,30.90
2018-09-25T15:58:14.555Z,31.14
2018-09-25T16:00:49.570Z,31.34
2018-09-25T16:03:23.963Z,31.27
2018-09-25T16:05:58.390Z,31.40
2018-09-25T16:08:32.897Z,31.35
2018-09-25T16:11:08.138Z,32.04
2018-09-25T16:13:42.704Z,32.62
2018-09-25T16:16:17.442Z,32.62
2018-09-25T16:18:51.911Z,33.42
2018-09-25T16:21:26.948Z,33.93
2018-09-25T16:24:01.594Z,33.08
2018-09-25T16:26:36.772Z,33.75
2018-09-25T16:29:11.332Z,33.95
2018-09-25T16:31:46.033Z,35.41
2018-09-25T16:34:20.562Z,34.02
2018-09-25T16:36:55.392Z,34.51
2018-09-25T16:39:30.096Z,34.49
2018-09-25T16:42:05.000Z,34.57
2018-09-25T16:44:39.498Z,34.14
2018-09-25T16:47:14.047Z,34.90
2018-09-25T16:49:48.714Z,35.08
2018-09-25T16:52:23.360Z,35.14
2018-09-25T16:54:57.731Z,35.03
2018-09-25T16:57:32.886Z,35.49
2018-09-25T17:00:07.341Z,36.43
2018-09-25T17:02:41.713Z,35.86
2018-09-25T17:05:16.295Z,36.71
2018-09-25T17:07:50.820Z,37.09
2018-09-25T17:10:25.357Z,36.60
2018-09-25T17:12:59.911Z,35.64
2018-09-25T17:15:34.355Z,36.00
2018-09-25T17:18:08.935Z,35.73
2018-09-25T17:20:43.404Z,35.04
2018-09-25T17:23:18.015Z,35.96
2018-09-25T17:25:54.177Z,35.72
2018-09-25T17:28:28.303Z,35.75
2018-09-25T17:31:06.693Z,35.57
2018-09-25T17:33:41.158Z,35.62
2018-09-25T17:36:15.644Z,35.96
2018-09-25T17:38:50.188Z,35.79
2018-09-25T17:41:24.769Z,35.22
2018-09-25T17:44:00.373Z,35.11
2018-09-25T17:46:35.817Z,35.32
2018-09-25T17:49:10.556Z,35.76
2018-09-25T17:51:45.369Z,35.65
2018-09-25T17:54:19.850Z,36.70
2018-09-25T17:56:54.958Z,39.12
2018-09-25T17:59:29.863Z,36.29
2018-09-25T18:02:04.502Z,37.17
2018-09-25T18:04:39.010Z,37.16
2018-09-25T18:07:13.671Z,37.22
2018-09-25T18:09:48.356Z,37.52
2018-09-25T18:12:22.912Z,37.87
2018-09-25T18:14:57.604Z,36.97
2018-09-25T18:17:32.337Z,36.92
2018-09-25T18:20:07.114Z,37.12
2018-09-25T18:22:41.642Z,38.11
2018-09-25T18:25:16.355Z,37.49
2018-09-25T18:27:50.796Z,37.44
2018-09-25T18:30:25.760Z,37.37
2018-09-25T18:33:00.537Z,37.22
2018-09-25T18:35:35.315Z,37.89
2018-09-25T18:38:09.782Z,37.78
2018-09-25T18:40:44.351Z,37.94
2018-09-25T18:43:19.287Z,38.40
2018-09-25T18:45:53.727Z,38.31
2018-09-25T18:48:28.536Z,38.43
2018-09-25T18:51:03.058Z,38.54
2018-09-25T18:53:37.795Z,38.58
2018-09-25T18:56:12.273Z,38.84
2018-09-25T18:58:46.954Z,38.88
2018-09-25T19:01:21.388Z,39.18
2018-09-25T19:03:55.969Z,39.33
2018-09-25T19:06:30.602Z,39.52
2018-09-25T19:09:05.022Z,39.18
2018-09-25T19:11:39.436Z,39.46
2018-09-25T19:14:15.056Z,39.72
2018-09-25T19:16:49.919Z,39.89
2018-09-25T19:19:24.341Z,40.27
2018-09-25T19:21:59.102Z,40.17
2018-09-25T19:24:33.767Z,40.33
2018-09-25T19:27:08.189Z,40.64
2018-09-25T19:29:42.757Z,40.76
2018-09-25T19:32:17.363Z,41.05
2018-09-25T19:34:52.016Z,40.82
2018-09-25T19:37:26.806Z,41.00
2018-09-25T19:40:01.183Z,41.16
2018-09-25T19:42:35.603Z,41.71
2018-09-25T19:45:10.301Z,42.36
2018-09-25T19:47:45.063Z,41.91
2018-09-25T19:50:19.539Z,41.95
2018-09-25T19:52:54.034Z,41.82
2018-09-25T19:55:28.561Z,42.08
2018-09-25T19:58:03.189Z,42.94
2018-09-25T20:00:37.761Z,42.58
2018-09-25T20:03:12.645Z,41.87
2018-09-25T20:05:47.125Z,42.09
2018-09-25T20:08:21.562Z,42.28
2018-09-25T20:10:56.068Z,42.54
2018-09-25T20:13:30.583Z,43.80
2018-09-25T20:16:05.029Z,43.13
2018-09-25T20:18:39.683Z,43.44
2018-09-25T20:21:14.394Z,43.44
2018-09-25T20:23:49.327Z,43.58
2018-09-25T20:26:23.658Z,43.41
2018-09-25T20:28:58.279Z,43.62
2018-09-25T20:31:32.695Z,43.93
2018-09-25T20:34:08.234Z,43.56
2018-09-25T20:36:42.843Z,43.87
2018-09-25T20:39:17.337Z,45.32
2018-09-25T20:41:51.860Z,44.13
2018-09-25T20:44:26.947Z,44.22
2018-09-25T20:47:01.358Z,44.05
2018-09-25T20:49:36.184Z,44.01
2018-09-25T20:52:10.772Z,44.44
2018-09-25T20:54:45.332Z,44.26
2018-09-25T20:57:20.122Z,44.45
2018-09-25T20:59:54.796Z,44.80
2018-09-25T21:02:29.508Z,44.86
2018-09-25T21:05:04.398Z,44.34
2018-09-25T21:07:40.293Z,44.43
2018-09-25T21:10:15.146Z,44.42
2018-09-25T21:12:49.865Z,44.40
2018-09-25T21:15:24.636Z,44.46
2018-09-25T21:17:59.404Z,44.39
2018-09-25T21:20:34.028Z,44.75
2018-09-25T21:23:08.701Z,44.51
2018-09-25T21:25:43.583Z,44.39
2018-09-25T21:28:18.292Z,44.54
2018-09-25T21:30:53.007Z,44.42
2018-09-25T21:33:28.381Z,44.52
2018-09-25T21:36:03.144Z,44.54
2018-09-25T21:38:38.116Z,44.35
2018-09-25T21:41:13.172Z,44.55
2018-09-25T21:43:48.019Z,44.63
2018-09-25T21:46:23.412Z,44.54
2018-09-25T21:48:58.243Z,44.41
2018-09-25T21:51:33.113Z,44.56
2018-09-25T21:54:07.727Z,44.51
2018-09-25T21:56:42.582Z,45.31
2018-09-25T21:59:17.439Z,45.00
2018-09-25T22:01:52.003Z,44.95
2018-09-25T22:04:26.689Z,44.97
2018-09-25T22:07:01.212Z,44.82
2018-09-25T22:09:36.162Z,44.86
2018-09-25T22:12:10.873Z,45.22
2018-09-25T22:14:45.585Z,45.49
2018-09-25T22:17:20.405Z,45.77
2018-09-25T22:19:55.012Z,45.96
2018-09-25T22:22:29.667Z,45.92
2018-09-25T22:25:04.573Z,46.11
2018-09-25T22:27:39.338Z,46.17
2018-09-25T22:30:14.149Z,46.59
2018-09-25T22:32:49.132Z,46.55
2018-09-25T22:35:23.884Z,47.05
2018-09-25T22:37:58.634Z,47.80
2018-09-25T22:40:33.131Z,47.21
2018-09-25T22:43:07.815Z,47.42
2018-09-25T22:45:42.293Z,47.18
2018-09-25T22:48:16.980Z,46.98
2018-09-25T22:50:51.725Z,46.96
2018-09-25T22:53:26.443Z,46.96
2018-09-25T22:56:01.328Z,47.23
2018-09-25T22:58:36.405Z,47.62
2018-09-25T23:01:11.098Z,47.91
2018-09-25T23:03:45.727Z,48.30
2018-09-25T23:06:20.791Z,48.36
2018-09-25T23:08:55.608Z,48.69
2018-09-25T23:11:30.283Z,48.69
2018-09-25T23:14:05.013Z,48.89
2018-09-25T23:16:39.746Z,49.02
2018-09-25T23:19:14.481Z,49.40
2018-09-25T23:21:48.900Z,49.41
2018-09-25T23:24:23.258Z,49.30
2018-09-25T23:26:58.002Z,49.40
2018-09-25T23:29:32.621Z,49.74
2018-09-25T23:32:07.514Z,49.61
2018-09-25T23:34:42.152Z,49.76
2018-09-25T23:37:16.726Z,50.29
2018-09-25T23:39:55.031Z,50.83
2018-09-25T23:42:30.546Z,50.19
2018-09-25T23:45:07.127Z,49.89
2018-09-25T23:47:45.224Z,50.20
2018-09-25T23:50:19.793Z,50.01
2018-09-25T23:52:54.893Z,50.39
2018-09-25T23:55:29.926Z,50.26
2018-09-25T23:59:02.498Z,50.50
